Terminal Aerodrome Forecast
Issued by NWS

Home | Current Version | Previous Version | Text Only | Print | Product List | Glossary On
Versions: 1 2 3 4 5 6 7 8 9 10 11 12 13 14 15 16 17 18 19 20 21 22 23 24 25 26
294
FTUS42 KCAE 251140
TAFOGB
TAF
KOGB 251140Z 2512/2612 20003KT P6SM SCT070 SCT200
     FM251500 20006KT P6SM SCT060 SCT150
     FM260200 VRB03KT P6SM FEW150=

USA.gov is the U.S. government's official web portal to all federal, state and local government web resources and services.